Flinton, Pennsylvania
Current Conditions -  °F | °C
As of 1:54 PM on Tuesday 21 Oct 2014 (Local Time) from KFIG Reporting Station
Light Rain Light Rain  
Wind Chill: 50°   Ceiling: 5000
Heat Index: 50°   Visibility: 7mi
Dew Point: 48°   Wind: 0mph
Humidity: 93%   Direction: NA
Pressure: 29.85"   Gusts: NA
Location:  40.71°N, 78.52°W
Report Text: KFIG 211754Z AUTO 00000KT 7SM -RA FEW028 OVC050 10/09 A2985 RMK AO2 LTG DSNT NE SLP113 P0005 60006 T01000089 10117 20089 58004
Loading
Personal Weather Stations






























Interactive Weather Map
Tropical Storm Tracking
New forecast layout! Learn more

10-Day Weather Forecast

Advertisements
Track Severe Weather on mobile